createdAt,value
2022-10-05T00:00:29.829Z,100625.50
2022-10-05T00:03:12.426Z,100634.75
2022-10-05T00:05:41.746Z,100633.15
2022-10-05T00:08:25.768Z,100629.48
2022-10-05T00:10:54.792Z,100627.42
2022-10-05T00:13:26.448Z,100631.26
2022-10-05T00:16:15.570Z,100637.71
2022-10-05T00:18:53.633Z,100653.10
2022-10-05T00:21:25.784Z,100659.80
2022-10-05T00:24:11.548Z,100648.14
2022-10-05T00:26:40.592Z,100647.52
2022-10-05T00:29:24.071Z,100646.33
2022-10-05T00:31:53.028Z,100644.12
2022-10-05T00:34:21.965Z,100636.14
2022-10-05T00:37:06.036Z,100631.96
2022-10-05T00:39:39.060Z,100633.49
2022-10-05T00:42:33.439Z,100638.72
2022-10-05T00:45:23.670Z,100649.90
2022-10-05T00:48:04.781Z,100645.69
2022-10-05T00:50:55.561Z,100645.69
2022-10-05T00:53:43.682Z,100642.82
2022-10-05T00:56:25.663Z,100637.16
2022-10-05T00:59:04.626Z,100630.02
2022-10-05T01:02:11.213Z,100628.13
2022-10-05T01:05:16.004Z,100624.85
2022-10-05T01:07:44.894Z,100611.69
2022-10-05T01:10:16.761Z,100607.25
2022-10-05T01:13:37.121Z,100604.36
2022-10-05T01:16:24.465Z,100603.85
2022-10-05T01:19:27.531Z,100595.48
2022-10-05T01:22:16.801Z,100604.69
2022-10-05T01:25:30.876Z,100609.67
2022-10-05T01:28:09.803Z,100605.31
2022-10-05T01:31:07.088Z,100589.74
2022-10-05T01:34:01.439Z,100585.68
2022-10-05T01:36:57.152Z,100582.52
2022-10-05T01:39:33.651Z,100578.86
2022-10-05T01:42:08.288Z,100587.23
2022-10-05T01:45:00.708Z,100593.23
2022-10-05T01:47:48.373Z,100596.62
2022-10-05T01:50:46.078Z,100595.98
2022-10-05T01:53:44.324Z,100598.77
2022-10-05T01:56:39.070Z,100594.11
2022-10-05T01:59:38.098Z,100589.02
2022-10-05T02:02:15.082Z,100593.07
2022-10-05T02:05:08.724Z,100590.80
2022-10-05T02:08:00.761Z,100588.54
2022-10-05T02:10:36.876Z,100586.54
2022-10-05T02:13:18.829Z,100584.21
2022-10-05T02:16:04.918Z,100588.55
2022-10-05T02:18:47.509Z,100592.40
2022-10-05T02:21:34.561Z,100588.38
2022-10-05T02:24:10.028Z,100583.33
2022-10-05T02:26:41.555Z,100592.33
2022-10-05T02:29:29.583Z,100593.48
2022-10-05T02:32:07.427Z,100587.90
2022-10-05T02:34:40.185Z,100579.84
2022-10-05T02:37:54.552Z,100566.45
2022-10-05T02:40:54.541Z,100561.93
2022-10-05T02:43:45.662Z,100561.47
2022-10-05T02:47:19.445Z,100555.40
2022-10-05T02:49:57.753Z,100555.90
2022-10-05T02:52:56.409Z,100560.48
2022-10-05T02:55:37.496Z,100559.83
2022-10-05T02:58:16.754Z,100562.94
2022-10-05T03:00:54.716Z,100560.51
2022-10-05T03:03:36.068Z,100552.29
2022-10-05T03:06:25.820Z,100542.98
2022-10-05T03:09:03.361Z,100540.98
2022-10-05T03:11:38.443Z,100551.73
2022-10-05T03:14:31.353Z,100557.64
2022-10-05T03:17:17.260Z,100565.34
2022-10-05T03:20:09.537Z,100567.70
2022-10-05T03:23:06.454Z,100574.69
2022-10-05T03:26:01.313Z,100582.09
2022-10-05T03:28:48.703Z,100581.09
2022-10-05T03:31:42.789Z,100578.82
2022-10-05T03:34:44.840Z,100582.01
2022-10-05T03:37:32.880Z,100587.72
2022-10-05T03:40:08.194Z,100577.21
2022-10-05T03:43:07.294Z,100577.70
2022-10-05T03:45:48.042Z,100574.36
2022-10-05T03:48:26.302Z,100565.65
2022-10-05T03:51:21.947Z,100571.06
2022-10-05T03:54:06.014Z,100563.55
2022-10-05T03:57:10.311Z,100560.06
2022-10-05T03:59:51.037Z,100555.36
2022-10-05T04:02:28.356Z,100552.89
2022-10-05T04:05:11.055Z,100548.65
2022-10-05T04:08:07.251Z,100541.88
2022-10-05T04:10:56.544Z,100534.38
2022-10-05T04:13:46.591Z,100537.24
2022-10-05T04:16:28.464Z,100529.69
2022-10-05T04:19:15.883Z,100522.15
2022-10-05T04:22:09.326Z,100519.67
2022-10-05T04:24:51.742Z,100522.56
2022-10-05T04:27:30.735Z,100527.60
2022-10-05T04:30:18.962Z,100538.29
2022-10-05T04:32:59.672Z,100541.44
2022-10-05T04:36:10.032Z,100532.05
2022-10-05T04:39:18.472Z,100526.47
2022-10-05T04:42:18.235Z,100524.96
2022-10-05T04:45:04.849Z,100522.35
2022-10-05T04:47:57.322Z,100516.55
2022-10-05T04:50:51.552Z,100520.05
2022-10-05T04:53:33.986Z,100523.85
2022-10-05T04:56:19.608Z,100525.10
2022-10-05T04:59:25.434Z,100528.77
2022-10-05T05:02:45.674Z,100522.48
2022-10-05T05:06:04.981Z,100521.05
2022-10-05T05:08:51.450Z,100526.80
2022-10-05T05:11:56.274Z,100524.30
2022-10-05T05:15:16.378Z,100517.41
2022-10-05T05:18:24.171Z,100517.52
2022-10-05T05:20:59.649Z,100518.36
2022-10-05T05:24:11.760Z,100514.09
2022-10-05T05:27:18.375Z,100514.90
2022-10-05T05:30:38.869Z,100524.06
2022-10-05T05:33:28.139Z,100523.30
2022-10-05T05:36:38.933Z,100521.55
2022-10-05T05:39:24.943Z,100527.09
2022-10-05T05:42:22.189Z,100523.58
2022-10-05T05:44:55.411Z,100523.50
2022-10-05T05:47:38.210Z,100524.96
2022-10-05T05:50:28.345Z,100524.36
2022-10-05T05:53:23.803Z,100526.92
2022-10-05T05:56:13.647Z,100535.72
2022-10-05T05:58:45.388Z,100547.09
2022-10-05T06:01:39.474Z,100545.73
2022-10-05T06:04:50.120Z,100542.81
2022-10-05T06:07:30.698Z,100544.21
2022-10-05T06:10:45.527Z,100546.48
2022-10-05T06:13:36.144Z,100550.63
2022-10-05T06:16:11.141Z,100554.20
2022-10-05T06:18:45.107Z,100547.21
2022-10-05T06:21:40.129Z,100527.27
2022-10-05T06:24:50.204Z,100519.62
2022-10-05T06:27:58.741Z,100509.77
2022-10-05T06:30:51.088Z,100505.05
2022-10-05T06:33:39.238Z,100510.41
2022-10-05T06:36:36.867Z,100498.23
2022-10-05T06:39:36.736Z,100497.63
2022-10-05T06:42:23.666Z,100499.09
2022-10-05T06:45:41.201Z,100503.90
2022-10-05T06:48:41.636Z,100497.88
2022-10-05T06:51:41.290Z,100507.54
2022-10-05T06:54:28.569Z,100512.17
2022-10-05T06:57:33.491Z,100515.63
2022-10-05T07:00:07.730Z,100523.30
2022-10-05T07:03:30.158Z,100531.33
2022-10-05T07:06:26.179Z,100520.57
2022-10-05T07:09:30.492Z,100517.02
2022-10-05T07:12:18.628Z,100514.42
2022-10-05T07:15:19.531Z,100515.98
2022-10-05T07:18:26.353Z,100524.16
2022-10-05T07:21:17.939Z,100540.34
2022-10-05T07:24:22.351Z,100534.52
2022-10-05T07:27:16.567Z,100485.33
2022-10-05T07:30:08.484Z,100461.36
2022-10-05T07:33:06.053Z,100470.13
2022-10-05T07:36:38.594Z,100472.16
2022-10-05T07:39:59.051Z,100476.70
2022-10-05T07:42:52.047Z,100490.98
2022-10-05T07:45:38.123Z,100486.08
2022-10-05T07:48:33.355Z,100482.70
2022-10-05T07:51:27.986Z,100483.02
2022-10-05T07:54:48.470Z,100482.41
2022-10-05T07:57:42.368Z,100475.20
2022-10-05T08:00:45.707Z,100464.33
2022-10-05T08:03:41.950Z,100444.52
2022-10-05T08:06:52.046Z,100439.13
2022-10-05T08:09:42.642Z,100449.92
2022-10-05T08:12:34.935Z,100470.39
2022-10-05T08:18:42.065Z,100487.52
2022-10-05T08:21:14.132Z,100492.06
2022-10-05T08:24:05.244Z,100493.74
2022-10-05T08:26:52.622Z,100494.13
2022-10-05T08:29:33.462Z,100497.52
2022-10-05T08:32:06.766Z,100479.66
2022-10-05T08:34:38.625Z,100470.30
2022-10-05T08:37:32.471Z,100461.96
2022-10-05T08:40:43.040Z,100453.17
2022-10-05T08:43:24.439Z,100470.45
2022-10-05T08:46:25.175Z,100451.29
2022-10-05T08:48:54.014Z,100452.81
2022-10-05T08:52:13.812Z,100465.70
2022-10-05T08:55:01.359Z,100463.85
2022-10-05T08:57:41.301Z,100464.33
2022-10-05T09:00:28.834Z,100466.91
2022-10-05T09:03:34.347Z,100470.77
2022-10-05T09:06:22.755Z,100465.30
2022-10-05T09:09:36.217Z,100446.05
2022-10-05T09:12:18.429Z,100451.21
2022-10-05T09:15:38.859Z,100454.13
2022-10-05T09:18:07.851Z,100460.41
2022-10-05T09:20:55.538Z,100454.65
2022-10-05T09:23:40.929Z,100454.12
2022-10-05T09:26:41.323Z,100445.43
2022-10-05T09:30:01.079Z,100451.49
2022-10-05T09:32:52.094Z,100448.27
2022-10-05T09:36:13.631Z,100441.48
2022-10-05T09:39:19.178Z,100444.24
2022-10-05T09:42:29.469Z,100433.88
2022-10-05T09:45:21.433Z,100452.30
2022-10-05T09:48:15.442Z,100452.37
2022-10-05T09:51:19.967Z,100454.39
2022-10-05T09:54:21.057Z,100457.17
2022-10-05T09:57:41.153Z,100452.29
2022-10-05T10:00:55.650Z,100455.26
2022-10-05T10:04:08.160Z,100457.16
2022-10-05T10:07:28.162Z,100456.98
2022-10-05T10:10:33.844Z,100455.56
2022-10-05T10:13:24.443Z,100456.59
2022-10-05T10:16:30.877Z,100465.06
2022-10-05T10:19:18.314Z,100455.56
2022-10-05T10:22:18.113Z,100454.48
2022-10-05T10:25:12.032Z,100455.23
2022-10-05T10:28:15.117Z,100446.21
2022-10-05T10:31:13.277Z,100436.52
2022-10-05T10:34:38.100Z,100443.79
2022-10-05T10:37:39.770Z,100439.08
2022-10-05T10:40:27.708Z,100437.66
2022-10-05T10:42:56.627Z,100442.36
2022-10-05T10:45:29.396Z,100439.45
2022-10-05T10:48:31.963Z,100422.94
2022-10-05T10:51:52.310Z,100428.91
2022-10-05T10:54:53.754Z,100433.23
2022-10-05T10:57:53.688Z,100444.63
2022-10-05T11:01:32.251Z,100449.80
2022-10-05T11:04:23.019Z,100443.27
2022-10-05T11:07:43.038Z,100452.13
2022-10-05T11:10:14.512Z,100463.63
2022-10-05T11:12:58.891Z,100468.52
2022-10-05T11:16:01.043Z,100464.03
2022-10-05T11:18:42.096Z,100455.07
2022-10-05T11:21:36.809Z,100450.71
2022-10-05T11:24:08.624Z,100456.42
2022-10-05T11:27:15.420Z,100457.26
2022-10-05T11:30:16.247Z,100458.71
2022-10-05T11:33:04.178Z,100455.80
2022-10-05T11:35:45.559Z,100457.63
2022-10-05T11:38:42.514Z,100457.20
2022-10-05T11:42:00.332Z,100464.19
2022-10-05T11:45:12.063Z,100465.38
2022-10-05T11:48:13.509Z,100471.95
2022-10-05T11:50:54.637Z,100468.46
2022-10-05T11:53:42.337Z,100455.61
2022-10-05T11:59:29.143Z,100442.17
2022-10-05T12:02:27.521Z,100432.76
2022-10-05T12:05:28.595Z,100417.31
2022-10-05T12:08:15.981Z,100418.09
2022-10-05T12:11:00.405Z,100402.56
2022-10-05T12:14:00.102Z,100398.10
2022-10-05T12:16:59.481Z,100397.95
2022-10-05T12:19:45.931Z,100396.27
2022-10-05T12:22:37.881Z,100394.20
2022-10-05T12:25:34.440Z,100402.27
2022-10-05T12:28:09.918Z,100398.55
2022-10-05T12:31:14.631Z,100399.77
2022-10-05T12:34:16.077Z,100405.51
2022-10-05T12:37:05.010Z,100400.25
2022-10-05T12:39:46.846Z,100404.30
2022-10-05T12:42:27.531Z,100403.41
2022-10-05T12:45:16.290Z,100397.66
2022-10-05T12:48:04.063Z,100399.50
2022-10-05T12:50:52.953Z,100396.73
2022-10-05T12:54:03.214Z,100391.14
2022-10-05T12:56:53.260Z,100387.32
2022-10-05T12:59:43.923Z,100388.02
2022-10-05T13:02:12.902Z,100392.49
2022-10-05T13:04:51.425Z,100394.88
2022-10-05T13:07:45.222Z,100391.56
2022-10-05T13:10:36.199Z,100397.86
2022-10-05T13:13:21.066Z,100405.97
2022-10-05T13:16:13.822Z,100406.77
2022-10-05T13:19:06.736Z,100400.87
2022-10-05T13:22:03.762Z,100400.02
2022-10-05T13:24:59.729Z,100384.95
2022-10-05T13:27:36.626Z,100385.35
2022-10-05T13:30:21.866Z,100386.47
2022-10-05T13:33:21.692Z,100387.00
2022-10-05T13:36:25.507Z,100384.58
2022-10-05T13:39:46.185Z,100381.39
2022-10-05T13:42:37.258Z,100373.23
2022-10-05T13:45:30.956Z,100366.36
2022-10-05T13:48:21.167Z,100359.14
2022-10-05T13:50:50.126Z,100352.17
2022-10-05T13:53:45.730Z,100345.13
2022-10-05T13:56:42.019Z,100347.48
2022-10-05T13:59:36.564Z,100344.96
2022-10-05T14:02:10.594Z,100347.13
2022-10-05T14:05:01.308Z,100347.33
2022-10-05T14:07:36.943Z,100351.11
2022-10-05T14:10:29.665Z,100355.24
2022-10-05T14:12:59.974Z,100357.53
2022-10-05T14:15:41.989Z,100356.62
2022-10-05T14:18:32.067Z,100360.91
2022-10-05T14:21:05.042Z,100366.45
2022-10-05T14:23:47.462Z,100369.45
2022-10-05T14:26:42.005Z,100371.63
2022-10-05T14:29:35.670Z,100369.48
2022-10-05T14:32:25.259Z,100370.47
2022-10-05T14:35:01.928Z,100373.66
2022-10-05T14:37:56.593Z,100371.98
2022-10-05T14:40:31.910Z,100365.20
2022-10-05T14:43:21.185Z,100365.29
2022-10-05T14:46:27.211Z,100362.79
2022-10-05T14:49:26.894Z,100357.42
2022-10-05T14:51:57.120Z,100351.47
2022-10-05T14:54:44.583Z,100347.32
2022-10-05T14:58:03.473Z,100344.84
2022-10-05T15:01:03.169Z,100353.73
2022-10-05T15:03:35.773Z,100352.02
2022-10-05T15:06:16.371Z,100348.27
2022-10-05T15:09:17.031Z,100351.17
2022-10-05T15:12:01.492Z,100343.13
2022-10-05T15:14:43.246Z,100338.63
2022-10-05T15:17:52.773Z,100343.39
2022-10-05T15:20:58.044Z,100355.35
2022-10-05T15:23:49.407Z,100355.80
2022-10-05T15:26:40.052Z,100352.05
2022-10-05T15:30:00.074Z,100351.61
2022-10-05T15:33:01.030Z,100349.24
2022-10-05T15:35:39.293Z,100345.94
2022-10-05T15:38:27.514Z,100345.87
2022-10-05T15:41:18.588Z,100345.63
2022-10-05T15:44:14.593Z,100344.59
2022-10-05T15:46:44.375Z,100343.04
2022-10-05T15:52:37.900Z,100335.89
2022-10-05T15:55:06.871Z,100335.77
2022-10-05T15:58:11.355Z,100324.20
2022-10-05T16:00:49.054Z,100323.40
2022-10-05T16:03:21.670Z,100321.61
2022-10-05T16:06:34.018Z,100331.61
2022-10-05T16:09:09.522Z,100337.67
2022-10-05T16:11:52.079Z,100337.27
2022-10-05T16:14:28.218Z,100339.90
2022-10-05T16:17:15.585Z,100330.66
2022-10-05T16:19:56.778Z,100327.29
2022-10-05T16:22:39.943Z,100324.98
2022-10-05T16:26:02.575Z,100323.27
2022-10-05T16:29:05.557Z,100325.52
2022-10-05T16:32:07.308Z,100330.88
2022-10-05T16:35:13.441Z,100328.89
2022-10-05T16:37:59.785Z,100331.23
2022-10-05T16:40:47.594Z,100333.80
2022-10-05T16:44:28.582Z,100328.70
2022-10-05T16:47:42.590Z,100335.66
2022-10-05T16:50:29.624Z,100333.02
2022-10-05T16:53:25.809Z,100336.66
2022-10-05T16:56:03.792Z,100331.00
2022-10-05T16:58:41.791Z,100331.08
2022-10-05T17:01:33.329Z,100334.65
2022-10-05T17:04:23.957Z,100338.01
2022-10-05T17:07:15.396Z,100336.30
2022-10-05T17:09:47.739Z,100334.36
2022-10-05T17:13:16.533Z,100334.98
2022-10-05T17:16:22.783Z,100338.76
2022-10-05T17:19:46.887Z,100332.02
2022-10-05T17:22:52.556Z,100333.41
2022-10-05T17:25:46.338Z,100332.61
2022-10-05T17:28:22.778Z,100327.91
2022-10-05T17:31:13.170Z,100324.45
2022-10-05T17:34:21.358Z,100325.77
2022-10-05T17:36:54.488Z,100320.70
2022-10-05T17:39:44.200Z,100313.23
2022-10-05T17:42:43.910Z,100308.70
2022-10-05T17:45:13.068Z,100308.55
2022-10-05T17:48:34.302Z,100309.46
2022-10-05T17:51:47.383Z,100309.21
2022-10-05T17:54:51.429Z,100309.97
2022-10-05T17:57:28.003Z,100306.31
2022-10-05T18:00:35.335Z,100310.20
2022-10-05T18:03:42.483Z,100306.58
2022-10-05T18:06:34.953Z,100301.31
2022-10-05T18:09:21.034Z,100306.23
2022-10-05T18:12:26.743Z,100306.21
2022-10-05T18:15:22.664Z,100306.61
2022-10-05T18:17:59.769Z,100306.38
2022-10-05T18:21:02.483Z,100304.32
2022-10-05T18:24:00.357Z,100303.16
2022-10-05T18:26:49.428Z,100303.72
2022-10-05T18:30:02.737Z,100305.98
2022-10-05T18:32:37.434Z,100304.86
2022-10-05T18:35:33.800Z,100302.23
2022-10-05T18:38:40.052Z,100295.77
2022-10-05T18:41:17.726Z,100298.25
2022-10-05T18:44:14.877Z,100295.95
2022-10-05T18:47:05.623Z,100297.00
2022-10-05T18:49:37.343Z,100296.70
2022-10-05T18:52:45.100Z,100296.88
2022-10-05T18:55:25.216Z,100292.58
2022-10-05T18:58:32.204Z,100292.77
2022-10-05T19:01:22.237Z,100286.83
2022-10-05T19:04:23.396Z,100283.66
2022-10-05T19:07:01.970Z,100282.75
2022-10-05T19:10:03.851Z,100280.38
2022-10-05T19:12:51.492Z,100283.70
2022-10-05T19:16:03.534Z,100283.63
2022-10-05T19:18:54.153Z,100279.77
2022-10-05T19:21:28.064Z,100280.94
2022-10-05T19:24:35.580Z,100282.86
2022-10-05T19:27:24.681Z,100280.66
2022-10-05T19:30:21.084Z,100282.35
2022-10-05T19:33:06.934Z,100282.85
2022-10-05T19:36:05.182Z,100281.96
2022-10-05T19:39:12.332Z,100281.32
2022-10-05T19:42:32.148Z,100281.92
2022-10-05T19:45:10.100Z,100284.70
2022-10-05T19:47:57.468Z,100286.60
2022-10-05T19:50:30.317Z,100282.53
2022-10-05T19:53:24.553Z,100286.42
2022-10-05T19:55:55.560Z,100285.86
2022-10-05T19:58:30.431Z,100287.59
2022-10-05T20:01:36.899Z,100291.54
2022-10-05T20:04:06.013Z,100289.65
2022-10-05T20:06:39.867Z,100294.21
2022-10-05T20:09:23.726Z,100296.70
2022-10-05T20:11:53.871Z,100299.69
2022-10-05T20:14:59.155Z,100298.74
2022-10-05T20:17:48.269Z,100298.96
2022-10-05T20:20:43.252Z,100302.94
2022-10-05T20:23:28.223Z,100305.45
2022-10-05T20:26:15.653Z,100307.79
2022-10-05T20:28:46.203Z,100309.50
2022-10-05T20:31:28.789Z,100316.14
2022-10-05T20:33:59.767Z,100317.88
2022-10-05T20:36:44.818Z,100316.05
2022-10-05T20:39:15.953Z,100322.09
2022-10-05T20:41:47.984Z,100323.41
2022-10-05T20:44:16.869Z,100328.11
2022-10-05T20:46:47.161Z,100326.98
2022-10-05T20:49:31.341Z,100326.83
2022-10-05T20:52:00.357Z,100324.49
2022-10-05T20:54:42.878Z,100325.30
2022-10-05T20:57:13.034Z,100322.40
2022-10-05T20:59:55.515Z,100323.95
2022-10-05T21:02:39.696Z,100323.11
2022-10-05T21:05:09.225Z,100325.80
2022-10-05T21:07:38.202Z,100322.63
2022-10-05T21:10:08.627Z,100323.52
2022-10-05T21:12:37.852Z,100324.61
2022-10-05T21:15:21.622Z,100325.27
2022-10-05T21:18:04.337Z,100324.64
2022-10-05T21:20:48.086Z,100327.66
2022-10-05T21:23:32.807Z,100326.33
2022-10-05T21:26:16.838Z,100323.09
2022-10-05T21:28:45.818Z,100326.38
2022-10-05T21:31:29.104Z,100323.35
2022-10-05T21:33:58.027Z,100318.75
2022-10-05T21:36:40.421Z,100318.65
2022-10-05T21:39:09.540Z,100320.45
2022-10-05T21:41:52.378Z,100324.04
2022-10-05T21:44:34.708Z,100326.80
2022-10-05T21:47:17.467Z,100326.03
2022-10-05T21:49:46.306Z,100328.89
2022-10-05T21:52:29.074Z,100332.61
2022-10-05T21:54:57.955Z,100331.48
2022-10-05T21:57:26.767Z,100328.02
2022-10-05T21:59:55.732Z,100328.09
2022-10-05T22:02:24.437Z,100325.30
2022-10-05T22:04:53.228Z,100327.28
2022-10-05T22:07:22.053Z,100324.88
2022-10-05T22:10:06.064Z,100329.42
2022-10-05T22:12:35.703Z,100326.92
2022-10-05T22:15:18.156Z,100330.72
2022-10-05T22:18:00.606Z,100331.85
2022-10-05T22:20:29.830Z,100330.76
2022-10-05T22:23:13.263Z,100330.10
2022-10-05T22:25:43.095Z,100326.42
2022-10-05T22:28:26.781Z,100323.59
2022-10-05T22:30:56.474Z,100328.95
2022-10-05T22:33:39.204Z,100322.48
2022-10-05T22:36:22.066Z,100321.30
2022-10-05T22:39:04.619Z,100326.14
2022-10-05T22:41:47.206Z,100324.81
2022-10-05T22:44:17.262Z,100320.68
2022-10-05T22:46:46.061Z,100325.43
2022-10-05T22:49:29.001Z,100319.14
2022-10-05T22:51:58.384Z,100319.22
2022-10-05T22:54:29.980Z,100323.11
2022-10-05T22:57:00.320Z,100323.04
2022-10-05T22:59:31.054Z,100323.66
2022-10-05T23:02:00.027Z,100327.05
2022-10-05T23:04:29.143Z,100329.91
2022-10-05T23:06:58.353Z,100329.94
2022-10-05T23:09:40.904Z,100329.98
2022-10-05T23:12:10.368Z,100331.45
2022-10-05T23:14:39.581Z,100325.73
2022-10-05T23:17:08.547Z,100332.09
2022-10-05T23:19:37.322Z,100330.07
2022-10-05T23:22:21.097Z,100327.57
2022-10-05T23:25:05.120Z,100331.66
2022-10-05T23:27:48.014Z,100334.06
2022-10-05T23:30:17.212Z,100333.73
2022-10-05T23:32:59.650Z,100335.96
2022-10-05T23:35:42.111Z,100335.83
2022-10-05T23:38:11.203Z,100338.54
2022-10-05T23:40:40.289Z,100336.47
2022-10-05T23:43:08.941Z,100334.58
2022-10-05T23:45:37.943Z,100337.73
2022-10-05T23:48:06.600Z,100334.08
2022-10-05T23:50:35.502Z,100335.89
2022-10-05T23:53:18.870Z,100334.10
2022-10-05T23:55:50.966Z,100331.02
2022-10-05T23:58:20.345Z,100332.77
